< < Back
Terminal Aerodrome Forecast


Current Version              Previous Versions:   1  2  3  4  5  6  7  8  9  

Terminal Aerodrome Forecast

015
FTUS42 KFFC 172334
TAFMCN
TAF
KMCN 172334Z 1800/1824 08004KT 6SM -SHRA OVC005
     FM180100 00000KT 4SM -SHRA OVC007
     FM180400 00000KT 2SM -SHRA BR BKN002
     FM181500 09003KT 6SM BR BKN007
     FM181700 10004KT P6SM BKN017=

Latest METAR

540
SAUS80 KWBC 181100 RRA
MTRMCN
METAR KMCN 181053Z AUTO 00000KT 8SM OVC003 18/18 A2994 RMK AO2 RAE13
SLP136 P0002 T01830178 TSNO


USA.gov is the U.S. government's official web portal to all federal, state and local government web resources and services.